If you wish to contribute or participate in the discussions about articles you are invited to join SKYbrary as a registered user

 Actions

Le Luc-Le Cannet Airport

From SKYbrary Wiki

LFMC
Airport
ICAO: LFMC
Summary
Name Le Luc-Le Cannet Airport
Region Europe
Territory France FR.gif
Location , Provence-Alpes-Cote d'Azur
Serving Le Luc
Elevation 80.772 m
265 ft
265 ft80.772 m
Type medium airport
Coordinates 43° 23' 4.82" N, 6° 23' 13.70" E
Runways
Designator Length Width Surface ROPS
9/27 800 m2,624.672 ft
30 m98.425 ft
ASP /
13/31 1400 m4,593.176 ft
30 m98.425 ft
ASP /


METAR
Observation LFMC 271030Z AUTO VRB04KT 9999 ////// 38/16 Q1019
Station Le Luc
Date/Time 27 June 2019 10:30:00
Wind direction °
Wind speed 04 kts
Lowest cloud amount n/a
Temperature 38°C
Dew point 16°C
Humidity 27%
QNH 1019 hPa
Weather condition n/a